x

Western Caribbean - 195 Nm Wsw Of Negril Jamiaca (42057) Wave Buoy

4:50 - Sun 14th Feb 2016 All times are UTC.

  • Sig Wave height 8.9ft
  • Swell Direction
  • Peak Period 8s
  • Average Period 6s
  • Wind
    25mph, 29mph gusts
  • Sea Temp 81°f
  • Ar Temp 80°f
  • Sea Pressure 1014.7mb

More Historic Weather Station data

Upgrade to MSW Pro to gain access to the past 30 days of data for over 8000 Wavebouys and Weather Stations around the globe.

Join Pro

Comparision Forecast

View Surf forecast
   
Dom 02/14 4:50 9ft 8s 6s 25 29 mph 1014.7mb 81f 80f
3:50 9.5ft 9s 6s 25 29 mph 1014.9mb 81f 80f
2:50 10ft 8s 6s 27 31 mph 1014.7mb 81f 80f
1:50 9ft 8s 6s 27 31 mph 1014.3mb 81f 79f
12:50 9.5ft 7s 6s 25 29 mph 1013.7mb 80f 79f
11:50 11ft 8s 7s 27 34 mph 1013mb 81f 79f
10:50 9.5ft 8s 6s 27 34 mph 1012.4mb 81f 79f
9:50 8.5ft 8s 6s 29 34 mph 1012.2mb 81f 79f
8:50 8.5ft 8s 6s 25 34 mph 1012.5mb 81f 76f
7:50 8ft 8s 6s 25 29 mph 1013.1mb 81f 77f
6:50 8.5ft 8s 6s 20 25 mph 1014.1mb 81f 78f
5:50 8ft 8s 6s 27 31 mph 1014.9mb 81f 79f
4:50 7ft 7s 6s 25 27 mph 1015.6mb 81f 79f
3:50 6ft 7s 5s 22 27 mph 1016.2mb 81f 79f
2:50 6ft 8s 5s 20 22 mph 1016.2mb 81f 79f
1:50 6ft 7s 5s 22 25 mph 1016mb 81f 79f
12:50 6ft 7s 5s 22 27 mph 1015.1mb 81f 79f
Sáb 02/13 11:50 5.5ft 6s 5s 20 22 mph 1014.7mb 81f 80f
10:50 6ft 6s 5s 18 22 mph 1014.6mb 81f 80f
9:50 5ft 8s 5s 18 20 mph 1014.6mb 81f 81f
8:50 5ft 6s 5s 18 27 mph 1014.4mb 81f 81f
7:50 5.5ft 6s 5s 18 20 mph 1014.8mb 81f 80f
6:50 5ft 6s 5s 16 20 mph 1015.5mb 81f 80f
5:50 5ft 7s 5s 16 20 mph 1016.4mb 81f 80f
4:50 5ft 7s 5s 18 20 mph 1017mb 81f 80f
3:50 5ft 8s 5s 16 20 mph 1017.4mb 81f 80f
2:50 5.5ft 7s 6s 18 20 mph 1017.2mb 81f 80f
1:50 5ft 7s 5s 18 22 mph 1016.5mb 81f 80f
12:50 5.5ft 7s 6s 18 22 mph 1016mb 81f 80f
11:50 5.5ft 7s 6s 16 20 mph 1015.3mb 81f 79f
10:50 5.5ft 7s 6s 13 18 mph 1014.8mb 81f 79f
9:50 6.5ft 7s 6s 13 16 mph 1014.3mb 81f 79f
8:50 6ft 7s 6s 13 16 mph 1013.9mb 81f 78f
7:50 6.5ft 7s 6s 16 18 mph 1014.4mb 81f 79f
6:50 6.5ft 7s 6s 18 20 mph 1014.9mb 81f 79f
5:50 7ft 8s 6s 18 22 mph 1015.5mb 81f 78f
4:50 7.5ft 7s 6s 16 18 mph 1015.9mb 81f 79f
3:50 7ft 8s 6s 20 25 mph 1016.1mb 81f 80f
2:50 7ft 7s 6s 18 22 mph 1016.2mb 81f 80f
1:50 7ft 7s 6s 20 25 mph 1015.9mb 81f 80f
12:50 8ft 8s 6s 20 25 mph 1015.4mb 81f 80f
Sex 02/12 11:50 7ft 8s 6s 22 25 mph 1015.1mb 81f 80f
10:50 7.5ft 8s 6s 20 25 mph 1014.9mb 81f 80f
9:50 7ft 8s 6s 20 22 mph 1015mb 81f 79f
8:50 8ft 8s 6s 20 22 mph 1014.9mb 81f 80f
7:50 7ft 8s 6s 20 22 mph 1015.3mb 81f 80f
6:50 8ft 8s 6s 20 22 mph 1016.1mb 81f 80f
5:50 8ft 8s 6s 20 25 mph 1016.9mb 81f 80f
4:50 8ft 8s 6s 22 25 mph 1017.8mb 81f 80f
3:50 8ft 8s 6s 20 25 mph 1018.5mb 81f 80f
2:50 8.5ft 8s 6s 22 25 mph 1018.5mb 81f 79f
1:50 8ft 8s 6s 22 27 mph 1017.9mb 81f 79f
12:50 8.5ft 8s 6s 22 27 mph 1017.4mb 81f 79f
11:50 8.5ft 8s 6s 25 29 mph 1016.9mb 81f 79f
10:50 8ft 8s 6s 22 27 mph 1016.5mb 81f 79f
9:50 8ft 8s 6s 22 27 mph 1016.1mb 81f 79f
8:50 8ft 8s 6s 22 27 mph 1016mb 81f 78f
7:50 7.5ft 8s 6s 22 27 mph 1016.2mb 81f 79f
6:50 8.5ft 8s 6s 22 27 mph 1016.9mb 81f 79f
5:50 8.5ft 9s 6s 22 29 mph 1017.4mb 81f 79f
4:50 8.5ft 8s 6s 22 27 mph 1018.1mb 81f 79f
3:50 9ft 8s 6s 22 27 mph 1018.5mb 81f 79f
2:50 9.5ft 8s 6s 25 29 mph 1018.4mb 81f 78f
1:50 8.5ft 8s 6s 25 31 mph 1018mb 81f 78f
12:50 9ft 8s 6s 25 29 mph 1017.5mb 81f 78f
Qui 02/11 11:50 9ft 8s 6s 25 29 mph 1017.3mb 81f 78f
10:50 9.5ft 7s 6s 25 29 mph 1017.1mb 81f 79f
9:50 8ft 7s 6s 25 29 mph 1016.7mb 81f 79f
8:50 8ft 7s 6s 25 29 mph 1016.2mb 81f 79f
7:50 7ft 7s 5s 22 27 mph 1016.5mb 81f 78f
6:50 7ft 7s 6s 22 27 mph 1017mb 81f 79f
5:50 7ft 7s 6s 20 25 mph 1017.9mb 81f 79f
4:50 8ft 7s 6s 20 22 mph 1018.5mb 81f 79f
3:50 7ft 7s 6s 18 22 mph 1019.5mb 81f 79f
2:50 8ft 7s 6s 20 22 mph 1019.3mb 81f 79f
1:50 8ft 7s 6s 20 25 mph 1019.3mb 81f 79f
12:50 8ft 7s 6s 22 27 mph 1018.9mb 81f 78f
11:50 8.5ft 7s 6s 25 29 mph 1018.2mb 81f 78f
10:50 8ft 7s 6s 22 27 mph 1018.2mb 81f 78f
9:50 8ft 6s 6s 25 29 mph 1017.7mb 81f 78f
8:50 7ft 6s 6s 25 29 mph 1017.3mb 81f 78f
7:50 8ft 7s 6s 25 29 mph 1017.5mb 81f 78f
6:50 8ft 7s 6s 22 27 mph 1018.3mb 81f 78f
5:50 8ft 6s 6s 22 29 mph 1019.1mb 81f 78f
4:50 8ft 7s 6s 22 27 mph 1019.8mb 81f 78f
3:50 9ft 7s 6s 25 29 mph 1020.1mb 81f 78f
2:50 9ft 8s 6s 25 31 mph 1020.2mb 81f 78f
1:50 8ft 7s 6s 27 31 mph 1019.6mb 81f 78f
12:50 8ft 7s 6s 25 29 mph 1019.4mb 81f 78f
Qua 02/10 11:50 8.5ft 8s 6s 22 29 mph 1018.9mb 81f 77f
10:50 9ft 8s 6s 25 29 mph 1018.4mb 81f 76f
9:50 7ft 8s 6s 25 29 mph 1018.2mb 81f 76f
8:50 8ft 7s 6s 25 29 mph 1018.2mb 81f 76f
7:50 7ft 6s 5s 22 25 mph 1018.1mb 81f 76f
6:50 7ft 7s 5s 22 27 mph 1018.8mb 81f 76f